Norwood, Illinois
Current Conditions -  °F | °C
As of 4:54 AM on Friday 31 Oct 2014 (Local Time) from KPIA Reporting Station
Overcast Overcast  
Wind Chill: 40°   Ceiling: 3700
Heat Index: 44°   Visibility: 10mi
Dew Point: 36°   Wind: 8mph
Humidity: 73%   Direction: 350°N
Pressure: 30.12"   Gusts: 18mph
Location:  40.7064°N, 89.6585°W
Report Text: KPIA 310954Z 35007G16KT 310V010 10SM FEW027 BKN037 OVC047 07/02 A3012 RMK AO2 SLP204 T00670022
Loading
Personal Weather Stations






























Interactive Weather Map
Tropical Storm Tracking
New forecast layout! Learn more

10-Day Weather Forecast

Advertisements
Track Severe Weather on mobile